sensor_id;sensor_type;location;lat;lon;timestamp;P1;P2;P0
63707;PMS5003;67643;-34.198;22.084;2023-05-21T02:02:30;0;0;
63707;PMS5003;67643;-34.198;22.084;2023-05-21T02:04:59;0;0;
63707;PMS5003;67643;-34.198;22.084;2023-05-21T02:07:27;2;0;
63707;PMS5003;67643;-34.198;22.084;2023-05-21T02:09:56;0;0;
63707;PMS5003;67643;-34.198;22.084;2023-05-21T02:12:24;1;1;
63707;PMS5003;67643;-34.198;22.084;2023-05-21T02:14:53;1;0;
63707;PMS5003;67643;-34.198;22.084;2023-05-21T02:17:21;1;1;
63707;PMS5003;67643;-34.198;22.084;2023-05-21T02:19:50;1;0;
63707;PMS5003;67643;-34.198;22.084;2023-05-21T02:22:18;1;0;
63707;PMS5003;67643;-34.198;22.084;2023-05-21T02:24:47;1;1;
63707;PMS5003;67643;-34.198;22.084;2023-05-21T02:27:15;0;0;
63707;PMS5003;67643;-34.198;22.084;2023-05-21T02:29:44;0;0;
63707;PMS5003;67643;-34.198;22.084;2023-05-21T02:32:12;0;0;
63707;PMS5003;67643;-34.198;22.084;2023-05-21T02:34:40;1;1;
63707;PMS5003;67643;-34.198;22.084;2023-05-21T02:37:09;3;1;
63707;PMS5003;67643;-34.198;22.084;2023-05-21T02:39:38;1;0;
63707;PMS5003;67643;-34.198;22.084;2023-05-21T02:42:06;1;1;
63707;PMS5003;67643;-34.198;22.084;2023-05-21T02:44:35;0;0;
63707;PMS5003;67643;-34.198;22.084;2023-05-21T02:47:03;1;1;
63707;PMS5003;67643;-34.198;22.084;2023-05-21T02:49:32;2;0;
63707;PMS5003;67643;-34.198;22.084;2023-05-21T02:52:00;1;1;
63707;PMS5003;67643;-34.198;22.084;2023-05-21T02:54:29;0;0;
63707;PMS5003;67643;-34.198;22.084;2023-05-21T02:56:57;0;0;
63707;PMS5003;67643;-34.198;22.084;2023-05-21T02:59:26;0;0;
63707;PMS5003;67643;-34.198;22.084;2023-05-21T03:01:54;1;1;
63707;PMS5003;67643;-34.198;22.084;2023-05-21T03:04:24;1;0;
63707;PMS5003;67643;-34.198;22.084;2023-05-21T03:06:52;0;0;
63707;PMS5003;67643;-34.198;22.084;2023-05-21T03:09:21;0;0;
63707;PMS5003;67643;-34.198;22.084;2023-05-21T03:11:49;1;1;
63707;PMS5003;67643;-34.198;22.084;2023-05-21T03:14:18;0;0;
63707;PMS5003;67643;-34.198;22.084;2023-05-21T03:16:46;3;0;
63707;PMS5003;67643;-34.198;22.084;2023-05-21T03:19:15;1;1;
63707;PMS5003;67643;-34.198;22.084;2023-05-21T03:21:43;0;0;
63707;PMS5003;67643;-34.198;22.084;2023-05-21T03:24:12;0;0;
63707;PMS5003;67643;-34.198;22.084;2023-05-21T03:26:40;0;0;
63707;PMS5003;67643;-34.198;22.084;2023-05-21T03:29:09;0;0;
63707;PMS5003;67643;-34.198;22.084;2023-05-21T03:31:37;2;2;
63707;PMS5003;67643;-34.198;22.084;2023-05-21T03:34:06;0;0;
63707;PMS5003;67643;-34.198;22.084;2023-05-21T03:36:34;2;1;
63707;PMS5003;67643;-34.198;22.084;2023-05-21T03:39:03;0;0;
63707;PMS5003;67643;-34.198;22.084;2023-05-21T03:41:31;0;0;
63707;PMS5003;67643;-34.198;22.084;2023-05-21T03:44:00;0;0;
63707;PMS5003;67643;-34.198;22.084;2023-05-21T03:46:29;0;0;
63707;PMS5003;67643;-34.198;22.084;2023-05-21T03:48:57;1;1;
63707;PMS5003;67643;-34.198;22.084;2023-05-21T03:51:26;0;0;
63707;PMS5003;67643;-34.198;22.084;2023-05-21T03:53:55;0;0;
63707;PMS5003;67643;-34.198;22.084;2023-05-21T03:56:23;0;0;
63707;PMS5003;67643;-34.198;22.084;2023-05-21T03:58:52;0;0;
63707;PMS5003;67643;-34.198;22.084;2023-05-21T04:01:21;0;0;
63707;PMS5003;67643;-34.198;22.084;2023-05-21T04:03:49;0;0;
63707;PMS5003;67643;-34.198;22.084;2023-05-21T04:06:19;5;5;
63707;PMS5003;67643;-34.198;22.084;2023-05-21T04:08:48;0;0;
63707;PMS5003;67643;-34.198;22.084;2023-05-21T04:11:16;0;0;
63707;PMS5003;67643;-34.198;22.084;2023-05-21T04:13:45;0;0;
63707;PMS5003;67643;-34.198;22.084;2023-05-21T04:16:13;1;1;
63707;PMS5003;67643;-34.198;22.084;2023-05-21T04:18:42;2;0;
63707;PMS5003;67643;-34.198;22.084;2023-05-21T04:21:10;0;0;
63707;PMS5003;67643;-34.198;22.084;2023-05-21T04:23:39;0;0;
63707;PMS5003;67643;-34.198;22.084;2023-05-21T04:26:08;1;0;
63707;PMS5003;67643;-34.198;22.084;2023-05-21T04:28:37;0;0;
63707;PMS5003;67643;-34.198;22.084;2023-05-21T04:31:05;0;0;
63707;PMS5003;67643;-34.198;22.084;2023-05-21T04:33:34;1;1;
63707;PMS5003;67643;-34.198;22.084;2023-05-21T04:36:02;1;1;
63707;PMS5003;67643;-34.198;22.084;2023-05-21T04:38:31;0;0;
63707;PMS5003;67643;-34.198;22.084;2023-05-21T04:40:59;0;0;
63707;PMS5003;67643;-34.198;22.084;2023-05-21T04:43:28;0;0;
63707;PMS5003;67643;-34.198;22.084;2023-05-21T04:45:56;0;0;
63707;PMS5003;67643;-34.198;22.084;2023-05-21T04:48:25;0;0;
63707;PMS5003;67643;-34.198;22.084;2023-05-21T04:50:53;0;0;
63707;PMS5003;67643;-34.198;22.084;2023-05-21T04:53:22;0;0;
63707;PMS5003;67643;-34.198;22.084;2023-05-21T04:55:51;0;0;
63707;PMS5003;67643;-34.198;22.084;2023-05-21T04:58:19;0;0;
63707;PMS5003;67643;-34.198;22.084;2023-05-21T05:00:47;1;0;
63707;PMS5003;67643;-34.198;22.084;2023-05-21T05:03:16;0;0;
63707;PMS5003;67643;-34.198;22.084;2023-05-21T05:05:44;1;0;
63707;PMS5003;67643;-34.198;22.084;2023-05-21T05:08:13;2;0;
63707;PMS5003;67643;-34.198;22.084;2023-05-21T05:10:41;1;1;
63707;PMS5003;67643;-34.198;22.084;2023-05-21T05:13:10;0;0;
63707;PMS5003;67643;-34.198;22.084;2023-05-21T05:15:38;2;0;
63707;PMS5003;67643;-34.198;22.084;2023-05-21T05:18:06;1;1;
63707;PMS5003;67643;-34.198;22.084;2023-05-21T05:20:35;2;0;
63707;PMS5003;67643;-34.198;22.084;2023-05-21T05:23:04;0;0;
63707;PMS5003;67643;-34.198;22.084;2023-05-21T05:25:32;0;0;
63707;PMS5003;67643;-34.198;22.084;2023-05-21T05:28:01;0;0;
63707;PMS5003;67643;-34.198;22.084;2023-05-21T05:30:29;0;0;
63707;PMS5003;67643;-34.198;22.084;2023-05-21T05:32:58;0;0;
63707;PMS5003;67643;-34.198;22.084;2023-05-21T05:35:26;1;0;
63707;PMS5003;67643;-34.198;22.084;2023-05-21T05:37:55;2;1;
63707;PMS5003;67643;-34.198;22.084;2023-05-21T05:40:23;1;1;
63707;PMS5003;67643;-34.198;22.084;2023-05-21T05:42:52;1;1;
63707;PMS5003;67643;-34.198;22.084;2023-05-21T05:45:21;3;1;
63707;PMS5003;67643;-34.198;22.084;2023-05-21T05:47:50;7;2;
63707;PMS5003;67643;-34.198;22.084;2023-05-21T05:50:18;6;3;
63707;PMS5003;67643;-34.198;22.084;2023-05-21T05:52:47;4;2;
63707;PMS5003;67643;-34.198;22.084;2023-05-21T05:55:15;4;2;
63707;PMS5003;67643;-34.198;22.084;2023-05-21T05:57:43;3;2;
63707;PMS5003;67643;-34.198;22.084;2023-05-21T06:00:12;6;3;
63707;PMS5003;67643;-34.198;22.084;2023-05-21T06:02:41;6;2;
63707;PMS5003;67643;-34.198;22.084;2023-05-21T06:05:10;6;3;
63707;PMS5003;67643;-34.198;22.084;2023-05-21T06:07:39;10;4;
63707;PMS5003;67643;-34.198;22.084;2023-05-21T06:10:09;4;3;
63707;PMS5003;67643;-34.198;22.084;2023-05-21T06:12:38;9;3;
63707;PMS5003;67643;-34.198;22.084;2023-05-21T06:15:07;7;2;
63707;PMS5003;67643;-34.198;22.084;2023-05-21T06:17:36;7;6;
63707;PMS5003;67643;-34.198;22.084;2023-05-21T06:20:04;2;2;
63707;PMS5003;67643;-34.198;22.084;2023-05-21T06:22:34;9;4;
63707;PMS5003;67643;-34.198;22.084;2023-05-21T06:25:03;5;3;
63707;PMS5003;67643;-34.198;22.084;2023-05-21T06:27:31;10;3;
63707;PMS5003;67643;-34.198;22.084;2023-05-21T06:30:00;3;2;
63707;PMS5003;67643;-34.198;22.084;2023-05-21T06:32:28;6;4;
63707;PMS5003;67643;-34.198;22.084;2023-05-21T06:34:57;5;3;
63707;PMS5003;67643;-34.198;22.084;2023-05-21T06:37:25;4;2;
63707;PMS5003;67643;-34.198;22.084;2023-05-21T06:39:53;8;2;
63707;PMS5003;67643;-34.198;22.084;2023-05-21T06:42:22;6;4;
63707;PMS5003;67643;-34.198;22.084;2023-05-21T06:44:50;6;2;
63707;PMS5003;67643;-34.198;22.084;2023-05-21T06:47:18;8;5;
63707;PMS5003;67643;-34.198;22.084;2023-05-21T06:49:46;4;3;
63707;PMS5003;67643;-34.198;22.084;2023-05-21T06:52:15;7;5;
63707;PMS5003;67643;-34.198;22.084;2023-05-21T06:54:43;7;6;
63707;PMS5003;67643;-34.198;22.084;2023-05-21T06:57:14;6;1;
63707;PMS5003;67643;-34.198;22.084;2023-05-21T06:59:43;3;3;
63707;PMS5003;67643;-34.198;22.084;2023-05-21T07:02:12;3;2;
63707;PMS5003;67643;-34.198;22.084;2023-05-21T07:04:40;7;4;
63707;PMS5003;67643;-34.198;22.084;2023-05-21T07:07:09;16;10;
63707;PMS5003;67643;-34.198;22.084;2023-05-21T07:09:37;20;14;
63707;PMS5003;67643;-34.198;22.084;2023-05-21T07:12:06;15;12;
63707;PMS5003;67643;-34.198;22.084;2023-05-21T07:14:34;19;16;
63707;PMS5003;67643;-34.198;22.084;2023-05-21T07:17:03;19;14;
63707;PMS5003;67643;-34.198;22.084;2023-05-21T07:19:32;13;11;
63707;PMS5003;67643;-34.198;22.084;2023-05-21T07:22:01;14;14;
63707;PMS5003;67643;-34.198;22.084;2023-05-21T07:24:30;17;11;
63707;PMS5003;67643;-34.198;22.084;2023-05-21T07:26:58;12;8;
63707;PMS5003;67643;-34.198;22.084;2023-05-21T07:29:27;15;9;
63707;PMS5003;67643;-34.198;22.084;2023-05-21T07:31:56;8;7;
63707;PMS5003;67643;-34.198;22.084;2023-05-21T07:34:24;10;8;
63707;PMS5003;67643;-34.198;22.084;2023-05-21T07:36:53;9;5;
63707;PMS5003;67643;-34.198;22.084;2023-05-21T07:39:21;10;7;
63707;PMS5003;67643;-34.198;22.084;2023-05-21T07:41:49;11;9;
63707;PMS5003;67643;-34.198;22.084;2023-05-21T07:44:18;8;4;
63707;PMS5003;67643;-34.198;22.084;2023-05-21T07:46:46;9;7;
63707;PMS5003;67643;-34.198;22.084;2023-05-21T07:49:15;12;6;
63707;PMS5003;67643;-34.198;22.084;2023-05-21T07:51:44;6;6;
63707;PMS5003;67643;-34.198;22.084;2023-05-21T07:54:13;7;4;
63707;PMS5003;67643;-34.198;22.084;2023-05-21T07:56:41;12;5;
63707;PMS5003;67643;-34.198;22.084;2023-05-21T07:59:10;7;4;
63707;PMS5003;67643;-34.198;22.084;2023-05-21T08:01:40;9;5;
63707;PMS5003;67643;-34.198;22.084;2023-05-21T08:04:08;6;4;
63707;PMS5003;67643;-34.198;22.084;2023-05-21T08:06:37;8;4;
63707;PMS5003;67643;-34.198;22.084;2023-05-21T08:09:05;8;5;
63707;PMS5003;67643;-34.198;22.084;2023-05-21T08:11:34;4;2;
63707;PMS5003;67643;-34.198;22.084;2023-05-21T08:14:03;7;5;
63707;PMS5003;67643;-34.198;22.084;2023-05-21T08:16:31;3;3;
63707;PMS5003;67643;-34.198;22.084;2023-05-21T08:19:00;6;4;
63707;PMS5003;67643;-34.198;22.084;2023-05-21T08:21:28;4;4;
63707;PMS5003;67643;-34.198;22.084;2023-05-21T08:23:57;3;2;
63707;PMS5003;67643;-34.198;22.084;2023-05-21T08:26:25;3;3;
63707;PMS5003;67643;-34.198;22.084;2023-05-21T08:28:54;4;4;
63707;PMS5003;67643;-34.198;22.084;2023-05-21T08:31:22;47;35;
63707;PMS5003;67643;-34.198;22.084;2023-05-21T08:33:51;5;5;
63707;PMS5003;67643;-34.198;22.084;2023-05-21T08:36:20;12;6;
63707;PMS5003;67643;-34.198;22.084;2023-05-21T08:38:51;3;3;
63707;PMS5003;67643;-34.198;22.084;2023-05-21T08:41:20;3;3;
63707;PMS5003;67643;-34.198;22.084;2023-05-21T08:43:52;8;6;
63707;PMS5003;67643;-34.198;22.084;2023-05-21T08:46:22;10;4;
63707;PMS5003;67643;-34.198;22.084;2023-05-21T08:48:51;5;4;
63707;PMS5003;67643;-34.198;22.084;2023-05-21T08:51:20;6;3;
63707;PMS5003;67643;-34.198;22.084;2023-05-21T08:53:49;5;2;
63707;PMS5003;67643;-34.198;22.084;2023-05-21T08:56:17;4;2;
63707;PMS5003;67643;-34.198;22.084;2023-05-21T08:58:47;3;1;
63707;PMS5003;67643;-34.198;22.084;2023-05-21T09:01:17;3;2;
63707;PMS5003;67643;-34.198;22.084;2023-05-21T09:03:46;7;3;
63707;PMS5003;67643;-34.198;22.084;2023-05-21T09:06:16;8;5;
63707;PMS5003;67643;-34.198;22.084;2023-05-21T09:08:47;4;3;
63707;PMS5003;67643;-34.198;22.084;2023-05-21T09:11:25;6;2;
63707;PMS5003;67643;-34.198;22.084;2023-05-21T09:13:53;4;4;
63707;PMS5003;67643;-34.198;22.084;2023-05-21T09:16:24;5;2;
63707;PMS5003;67643;-34.198;22.084;2023-05-21T09:18:53;6;3;
63707;PMS5003;67643;-34.198;22.084;2023-05-21T09:21:23;3;3;
63707;PMS5003;67643;-34.198;22.084;2023-05-21T09:23:53;11;4;
63707;PMS5003;67643;-34.198;22.084;2023-05-21T09:26:22;4;4;
63707;PMS5003;67643;-34.198;22.084;2023-05-21T09:28:51;7;4;
63707;PMS5003;67643;-34.198;22.084;2023-05-21T09:31:25;3;3;
63707;PMS5003;67643;-34.198;22.084;2023-05-21T09:33:55;8;8;
63707;PMS5003;67643;-34.198;22.084;2023-05-21T09:36:23;4;2;
63707;PMS5003;67643;-34.198;22.084;2023-05-21T09:38:52;4;3;
63707;PMS5003;67643;-34.198;22.084;2023-05-21T09:41:21;3;0;
63707;PMS5003;67643;-34.198;22.084;2023-05-21T09:43:59;9;3;
63707;PMS5003;67643;-34.198;22.084;2023-05-21T09:46:29;7;3;
63707;PMS5003;67643;-34.198;22.084;2023-05-21T09:49:05;4;2;
63707;PMS5003;67643;-34.198;22.084;2023-05-21T09:51:37;6;6;
63707;PMS5003;67643;-34.198;22.084;2023-05-21T09:54:05;7;3;
63707;PMS5003;67643;-34.198;22.084;2023-05-21T09:56:36;2;2;
63707;PMS5003;67643;-34.198;22.084;2023-05-21T09:59:06;3;3;
63707;PMS5003;67643;-34.198;22.084;2023-05-21T10:01:34;10;1;
63707;PMS5003;67643;-34.198;22.084;2023-05-21T10:04:04;5;2;
63707;PMS5003;67643;-34.198;22.084;2023-05-21T10:06:35;2;2;
63707;PMS5003;67643;-34.198;22.084;2023-05-21T10:09:09;0;0;
63707;PMS5003;67643;-34.198;22.084;2023-05-21T10:11:41;5;3;
63707;PMS5003;67643;-34.198;22.084;2023-05-21T10:14:13;4;3;
63707;PMS5003;67643;-34.198;22.084;2023-05-21T10:16:46;3;3;
63707;PMS5003;67643;-34.198;22.084;2023-05-21T10:19:16;4;2;
63707;PMS5003;67643;-34.198;22.084;2023-05-21T10:21:45;5;1;
63707;PMS5003;67643;-34.198;22.084;2023-05-21T10:24:15;4;1;
63707;PMS5003;67643;-34.198;22.084;2023-05-21T10:26:44;5;3;
63707;PMS5003;67643;-34.198;22.084;2023-05-21T10:29:13;10;2;
63707;PMS5003;67643;-34.198;22.084;2023-05-21T10:31:43;3;3;
63707;PMS5003;67643;-34.198;22.084;2023-05-21T10:34:13;3;3;
63707;PMS5003;67643;-34.198;22.084;2023-05-21T10:36:41;4;1;
63707;PMS5003;67643;-34.198;22.084;2023-05-21T10:39:12;3;2;
63707;PMS5003;67643;-34.198;22.084;2023-05-21T10:41:44;3;1;
63707;PMS5003;67643;-34.198;22.084;2023-05-21T10:44:24;4;3;
63707;PMS5003;67643;-34.198;22.084;2023-05-21T10:48:12;3;3;
63707;PMS5003;67643;-34.198;22.084;2023-05-21T10:50:57;4;3;
63707;PMS5003;67643;-34.198;22.084;2023-05-21T10:53:39;6;3;
63707;PMS5003;67643;-34.198;22.084;2023-05-21T10:56:28;8;2;
63707;PMS5003;67643;-34.198;22.084;2023-05-21T10:59:06;5;2;
63707;PMS5003;67643;-34.198;22.084;2023-05-21T11:01:41;4;3;
63707;PMS5003;67643;-34.198;22.084;2023-05-21T11:04:10;1;1;
63707;PMS5003;67643;-34.198;22.084;2023-05-21T11:06:39;3;2;
63707;PMS5003;67643;-34.198;22.084;2023-05-21T11:09:12;3;3;
63707;PMS5003;67643;-34.198;22.084;2023-05-21T11:11:42;2;1;
63707;PMS5003;67643;-34.198;22.084;2023-05-21T11:14:28;6;5;
63707;PMS5003;67643;-34.198;22.084;2023-05-21T11:16:59;3;1;
63707;PMS5003;67643;-34.198;22.084;2023-05-21T11:19:36;1;1;
63707;PMS5003;67643;-34.198;22.084;2023-05-21T11:22:07;6;3;
63707;PMS5003;67643;-34.198;22.084;2023-05-21T11:24:46;5;2;
63707;PMS5003;67643;-34.198;22.084;2023-05-21T11:27:28;3;2;
63707;PMS5003;67643;-34.198;22.084;2023-05-21T11:30:01;3;2;
63707;PMS5003;67643;-34.198;22.084;2023-05-21T11:32:31;4;1;
63707;PMS5003;67643;-34.198;22.084;2023-05-21T11:35:03;3;3;
63707;PMS5003;67643;-34.198;22.084;2023-05-21T11:37:33;2;2;
63707;PMS5003;67643;-34.198;22.084;2023-05-21T11:40:26;4;2;
63707;PMS5003;67643;-34.198;22.084;2023-05-21T11:42:55;5;3;
63707;PMS5003;67643;-34.198;22.084;2023-05-21T11:45:26;6;3;
63707;PMS5003;67643;-34.198;22.084;2023-05-21T11:47:56;2;1;
63707;PMS5003;67643;-34.198;22.084;2023-05-21T11:50:25;5;3;
63707;PMS5003;67643;-34.198;22.084;2023-05-21T11:52:55;5;3;
63707;PMS5003;67643;-34.198;22.084;2023-05-21T11:55:25;10;3;
63707;PMS5003;67643;-34.198;22.084;2023-05-21T11:57:53;12;8;
63707;PMS5003;67643;-34.198;22.084;2023-05-21T12:00:21;11;7;
63707;PMS5003;67643;-34.198;22.084;2023-05-21T12:02:50;11;8;
63707;PMS5003;67643;-34.198;22.084;2023-05-21T12:05:19;10;8;
63707;PMS5003;67643;-34.198;22.084;2023-05-21T12:07:48;8;7;
63707;PMS5003;67643;-34.198;22.084;2023-05-21T12:10:20;14;10;
63707;PMS5003;67643;-34.198;22.084;2023-05-21T12:12:48;10;7;
63707;PMS5003;67643;-34.198;22.084;2023-05-21T12:15:17;16;10;
63707;PMS5003;67643;-34.198;22.084;2023-05-21T12:17:48;8;8;
63707;PMS5003;67643;-34.198;22.084;2023-05-21T12:20:17;12;9;
63707;PMS5003;67643;-34.198;22.084;2023-05-21T12:22:47;9;9;
63707;PMS5003;67643;-34.198;22.084;2023-05-21T12:25:16;8;7;
63707;PMS5003;67643;-34.198;22.084;2023-05-21T12:27:46;12;8;
63707;PMS5003;67643;-34.198;22.084;2023-05-21T12:30:15;12;9;
63707;PMS5003;67643;-34.198;22.084;2023-05-21T12:32:43;9;5;
63707;PMS5003;67643;-34.198;22.084;2023-05-21T12:35:20;11;8;
63707;PMS5003;67643;-34.198;22.084;2023-05-21T12:37:48;8;8;
63707;PMS5003;67643;-34.198;22.084;2023-05-21T12:40:17;6;4;
63707;PMS5003;67643;-34.198;22.084;2023-05-21T12:42:46;6;6;
63707;PMS5003;67643;-34.198;22.084;2023-05-21T12:45:15;7;6;
63707;PMS5003;67643;-34.198;22.084;2023-05-21T12:47:47;7;3;
63707;PMS5003;67643;-34.198;22.084;2023-05-21T12:50:17;11;9;
63707;PMS5003;67643;-34.198;22.084;2023-05-21T12:52:47;9;5;
63707;PMS5003;67643;-34.198;22.084;2023-05-21T12:55:19;5;4;
63707;PMS5003;67643;-34.198;22.084;2023-05-21T12:57:49;7;5;
63707;PMS5003;67643;-34.198;22.084;2023-05-21T13:00:26;11;4;
63707;PMS5003;67643;-34.198;22.084;2023-05-21T13:02:54;3;3;
63707;PMS5003;67643;-34.198;22.084;2023-05-21T13:05:22;10;7;
63707;PMS5003;67643;-34.198;22.084;2023-05-21T13:07:51;5;4;
63707;PMS5003;67643;-34.198;22.084;2023-05-21T13:10:19;8;3;
63707;PMS5003;67643;-34.198;22.084;2023-05-21T13:12:48;6;3;
63707;PMS5003;67643;-34.198;22.084;2023-05-21T13:15:17;4;4;
63707;PMS5003;67643;-34.198;22.084;2023-05-21T13:17:45;12;7;
63707;PMS5003;67643;-34.198;22.084;2023-05-21T13:20:15;7;3;
63707;PMS5003;67643;-34.198;22.084;2023-05-21T13:22:46;6;3;
63707;PMS5003;67643;-34.198;22.084;2023-05-21T13:25:16;5;2;
63707;PMS5003;67643;-34.198;22.084;2023-05-21T13:27:46;6;3;
63707;PMS5003;67643;-34.198;22.084;2023-05-21T13:30:16;2;2;
63707;PMS5003;67643;-34.198;22.084;2023-05-21T13:32:45;3;3;
63707;PMS5003;67643;-34.198;22.084;2023-05-21T13:35:14;5;4;
63707;PMS5003;67643;-34.198;22.084;2023-05-21T13:37:43;29;25;
63707;PMS5003;67643;-34.198;22.084;2023-05-21T13:40:12;25;23;
63707;PMS5003;67643;-34.198;22.084;2023-05-21T13:42:42;98;85;
63707;PMS5003;67643;-34.198;22.084;2023-05-21T13:45:13;147;119;
63707;PMS5003;67643;-34.198;22.084;2023-05-21T13:47:44;147;120;
63707;PMS5003;67643;-34.198;22.084;2023-05-21T13:50:13;143;116;
63707;PMS5003;67643;-34.198;22.084;2023-05-21T13:52:42;120;101;
63707;PMS5003;67643;-34.198;22.084;2023-05-21T13:55:10;127;104;
63707;PMS5003;67643;-34.198;22.084;2023-05-21T13:57:39;90;81;
63707;PMS5003;67643;-34.198;22.084;2023-05-21T14:00:08;104;80;
63707;PMS5003;67643;-34.198;22.084;2023-05-21T14:02:37;87;70;
63707;PMS5003;67643;-34.198;22.084;2023-05-21T14:05:08;82;71;
63707;PMS5003;67643;-34.198;22.084;2023-05-21T14:07:37;69;61;
63707;PMS5003;67643;-34.198;22.084;2023-05-21T14:10:06;64;49;
63707;PMS5003;67643;-34.198;22.084;2023-05-21T14:12:35;61;43;
63707;PMS5003;67643;-34.198;22.084;2023-05-21T14:15:04;50;37;
63707;PMS5003;67643;-34.198;22.084;2023-05-21T14:17:33;39;34;
63707;PMS5003;67643;-34.198;22.084;2023-05-21T14:20:02;39;32;
63707;PMS5003;67643;-34.198;22.084;2023-05-21T14:22:31;39;28;
63707;PMS5003;67643;-34.198;22.084;2023-05-21T14:25:00;26;21;
63707;PMS5003;67643;-34.198;22.084;2023-05-21T14:27:28;26;20;
63707;PMS5003;67643;-34.198;22.084;2023-05-21T14:29:56;19;18;
63707;PMS5003;67643;-34.198;22.084;2023-05-21T14:32:24;14;11;
63707;PMS5003;67643;-34.198;22.084;2023-05-21T14:34:53;17;14;
63707;PMS5003;67643;-34.198;22.084;2023-05-21T14:37:22;21;13;
63707;PMS5003;67643;-34.198;22.084;2023-05-21T14:39:50;16;10;
63707;PMS5003;67643;-34.198;22.084;2023-05-21T14:42:18;18;10;
63707;PMS5003;67643;-34.198;22.084;2023-05-21T14:44:46;14;11;
63707;PMS5003;67643;-34.198;22.084;2023-05-21T14:47:15;14;10;
63707;PMS5003;67643;-34.198;22.084;2023-05-21T14:49:44;11;8;
63707;PMS5003;67643;-34.198;22.084;2023-05-21T14:52:13;12;9;
63707;PMS5003;67643;-34.198;22.084;2023-05-21T14:54:41;13;8;
63707;PMS5003;67643;-34.198;22.084;2023-05-21T14:57:10;9;5;
63707;PMS5003;67643;-34.198;22.084;2023-05-21T14:59:38;12;6;
63707;PMS5003;67643;-34.198;22.084;2023-05-21T15:02:07;11;8;
63707;PMS5003;67643;-34.198;22.084;2023-05-21T15:04:35;12;10;
63707;PMS5003;67643;-34.198;22.084;2023-05-21T15:07:03;6;6;
63707;PMS5003;67643;-34.198;22.084;2023-05-21T15:09:32;7;4;
63707;PMS5003;67643;-34.198;22.084;2023-05-21T15:12:00;9;6;
63707;PMS5003;67643;-34.198;22.084;2023-05-21T15:14:29;7;3;
63707;PMS5003;67643;-34.198;22.084;2023-05-21T15:16:58;8;4;
63707;PMS5003;67643;-34.198;22.084;2023-05-21T15:19:26;8;4;
63707;PMS5003;67643;-34.198;22.084;2023-05-21T15:21:55;8;6;
63707;PMS5003;67643;-34.198;22.084;2023-05-21T15:24:23;6;4;
63707;PMS5003;67643;-34.198;22.084;2023-05-21T15:26:52;3;3;
63707;PMS5003;67643;-34.198;22.084;2023-05-21T15:29:21;10;6;
63707;PMS5003;67643;-34.198;22.084;2023-05-21T15:31:49;6;4;
63707;PMS5003;67643;-34.198;22.084;2023-05-21T15:34:18;5;3;
63707;PMS5003;67643;-34.198;22.084;2023-05-21T15:36:46;6;3;
63707;PMS5003;67643;-34.198;22.084;2023-05-21T15:39:15;4;2;
63707;PMS5003;67643;-34.198;22.084;2023-05-21T15:41:44;6;5;
63707;PMS5003;67643;-34.198;22.084;2023-05-21T15:44:12;11;4;
63707;PMS5003;67643;-34.198;22.084;2023-05-21T15:46:41;9;4;
63707;PMS5003;67643;-34.198;22.084;2023-05-21T15:49:09;10;4;
63707;PMS5003;67643;-34.198;22.084;2023-05-21T15:51:38;2;2;
63707;PMS5003;67643;-34.198;22.084;2023-05-21T15:54:06;7;4;
63707;PMS5003;67643;-34.198;22.084;2023-05-21T15:56:35;6;3;
63707;PMS5003;67643;-34.198;22.084;2023-05-21T15:59:04;3;3;
63707;PMS5003;67643;-34.198;22.084;2023-05-21T18:04:48;15;7;
63707;PMS5003;67643;-34.198;22.084;2023-05-21T18:07:16;10;7;
63707;PMS5003;67643;-34.198;22.084;2023-05-21T18:09:45;9;4;
63707;PMS5003;67643;-34.198;22.084;2023-05-21T18:12:14;8;6;
63707;PMS5003;67643;-34.198;22.084;2023-05-21T18:14:42;14;7;
63707;PMS5003;67643;-34.198;22.084;2023-05-21T18:17:11;9;5;
63707;PMS5003;67643;-34.198;22.084;2023-05-21T18:19:39;6;4;
63707;PMS5003;67643;-34.198;22.084;2023-05-21T18:22:08;9;6;
63707;PMS5003;67643;-34.198;22.084;2023-05-21T18:24:36;11;7;
63707;PMS5003;67643;-34.198;22.084;2023-05-21T18:27:04;9;7;
63707;PMS5003;67643;-34.198;22.084;2023-05-21T18:29:32;8;5;
63707;PMS5003;67643;-34.198;22.084;2023-05-21T18:32:01;5;4;
63707;PMS5003;67643;-34.198;22.084;2023-05-21T18:34:31;10;6;
63707;PMS5003;67643;-34.198;22.084;2023-05-21T18:36:59;11;6;
63707;PMS5003;67643;-34.198;22.084;2023-05-21T18:39:28;8;8;
63707;PMS5003;67643;-34.198;22.084;2023-05-21T18:41:57;7;6;
63707;PMS5003;67643;-34.198;22.084;2023-05-21T18:44:25;5;5;
63707;PMS5003;67643;-34.198;22.084;2023-05-21T18:46:53;6;5;
63707;PMS5003;67643;-34.198;22.084;2023-05-21T18:49:22;12;8;
63707;PMS5003;67643;-34.198;22.084;2023-05-21T18:51:51;8;6;
63707;PMS5003;67643;-34.198;22.084;2023-05-21T18:54:19;9;5;
63707;PMS5003;67643;-34.198;22.084;2023-05-21T18:56:48;11;7;
63707;PMS5003;67643;-34.198;22.084;2023-05-21T18:59:16;7;4;
63707;PMS5003;67643;-34.198;22.084;2023-05-21T19:01:44;11;6;
63707;PMS5003;67643;-34.198;22.084;2023-05-21T19:04:13;13;6;
63707;PMS5003;67643;-34.198;22.084;2023-05-21T19:06:42;11;7;
63707;PMS5003;67643;-34.198;22.084;2023-05-21T19:09:11;8;5;
63707;PMS5003;67643;-34.198;22.084;2023-05-21T19:11:39;20;9;
63707;PMS5003;67643;-34.198;22.084;2023-05-21T19:14:08;21;10;
63707;PMS5003;67643;-34.198;22.084;2023-05-21T19:16:36;20;13;
63707;PMS5003;67643;-34.198;22.084;2023-05-21T19:19:04;21;12;
63707;PMS5003;67643;-34.198;22.084;2023-05-21T19:21:32;16;11;
63707;PMS5003;67643;-34.198;22.084;2023-05-21T19:24:02;8;8;
63707;PMS5003;67643;-34.198;22.084;2023-05-21T19:26:31;11;9;
63707;PMS5003;67643;-34.198;22.084;2023-05-21T19:28:59;13;8;
63707;PMS5003;67643;-34.198;22.084;2023-05-21T19:31:28;18;7;
63707;PMS5003;67643;-34.198;22.084;2023-05-21T19:33:56;8;7;
63707;PMS5003;67643;-34.198;22.084;2023-05-21T19:36:25;10;6;
63707;PMS5003;67643;-34.198;22.084;2023-05-21T19:38:53;14;7;
63707;PMS5003;67643;-34.198;22.084;2023-05-21T19:41:21;14;8;
63707;PMS5003;67643;-34.198;22.084;2023-05-21T19:43:50;10;6;
63707;PMS5003;67643;-34.198;22.084;2023-05-21T19:46:18;9;7;
63707;PMS5003;67643;-34.198;22.084;2023-05-21T19:48:47;15;8;
63707;PMS5003;67643;-34.198;22.084;2023-05-21T19:51:16;8;7;
63707;PMS5003;67643;-34.198;22.084;2023-05-21T19:53:44;5;4;
63707;PMS5003;67643;-34.198;22.084;2023-05-21T19:56:13;15;7;
63707;PMS5003;67643;-34.198;22.084;2023-05-21T19:58:41;9;6;
63707;PMS5003;67643;-34.198;22.084;2023-05-21T20:01:10;11;8;
63707;PMS5003;67643;-34.198;22.084;2023-05-21T20:03:38;9;7;
63707;PMS5003;67643;-34.198;22.084;2023-05-21T20:06:07;15;9;
63707;PMS5003;67643;-34.198;22.084;2023-05-21T20:08:36;10;7;
63707;PMS5003;67643;-34.198;22.084;2023-05-21T20:11:04;12;6;
63707;PMS5003;67643;-34.198;22.084;2023-05-21T20:13:33;15;8;
63707;PMS5003;67643;-34.198;22.084;2023-05-21T20:16:02;10;7;
63707;PMS5003;67643;-34.198;22.084;2023-05-21T20:18:31;6;5;
63707;PMS5003;67643;-34.198;22.084;2023-05-21T20:20:59;6;3;
63707;PMS5003;67643;-34.198;22.084;2023-05-21T20:23:28;4;3;
63707;PMS5003;67643;-34.198;22.084;2023-05-21T20:25:57;6;4;
63707;PMS5003;67643;-34.198;22.084;2023-05-21T20:28:25;4;3;
63707;PMS5003;67643;-34.198;22.084;2023-05-21T20:30:54;4;2;